Terminal Aerodrome Forecast
Issued by NWS

Home | Current Version | Previous Version | Text Only | Print | Product List | Glossary On
Versions: 1 2 3 4 5 6 7 8 9 10 11
494
FTUS46 KSEW 291120
TAFBLI
TAF
KBLI 291120Z 2912/3012 17005KT P6SM SCT150 BKN200
     FM291500 15008KT P6SM BKN060 BKN120 OVC200
     FM292100 16012G22KT P6SM -RA BKN030 OVC040
     FM292300 16015G25KT P6SM -RA OVC025
     FM300500 16013KT P6SM -SHRA OVC025
     FM300800 19010KT P6SM VCSH BKN030=

USA.gov is the U.S. government's official web portal to all federal, state and local government web resources and services.